KSAT/SAT METAR and TAF weather

Enter ICAO airport designator
Station Type Date Time Source
KSAT METAR 2020/01/28 11:51 UTC NOAA

KSAT 281151Z 10010KT 4SM BR SCT003 OVC065 14/13 A2990 RMK AO2 SLP110 RAE41 P0001 60035 70035 T01440133 10156 20144 50003 $


Station Type Date Time Source
KSAT Decoded METAR 2020/01/28 11:51 UTC NOAA

SAN ANTONIO INTERNATIONAL AIRPORT , TX, United States (KSAT) 29-32N 098-28W 243M
Jan 28, 2020 - 06:51 AM EST / 2020.01.28 1151 UTC
Wind: from the E (100 degrees) at 12 MPH (10 KT):0
Visibility: 4 mile(s):0
Sky conditions: overcast
Weather: mist
Precipitation last hour: 0.01 inches
Temperature: 57.9 F (14.4 C)
Dew Point: 55.9 F (13.3 C)
Relative Humidity: 93%
Pressure (altimeter): 29.9 in. Hg (1012 hPa)
Pressure tendency: 0.01 inches (0.3 hPa) higher than three hours ago
ob: KSAT 281151Z 10010KT 4SM BR SCT003 OVC065 14/13 A2990 RMK AO2 SLP110 RAE41 P0001 60035 70035 T01440133 10156 20144 50003
cycle: 12

Station Type Date Time Source
KSAT TAF 2020/01/28 12:22 UTC NOAA

TAF KSAT 281120Z 2812/2918 VRB06KT 5SM -SHRA VCTS BKN015CB
FM281300 17009KT P6SM VCSH BKN020
FM281700 27016G20KT P6SM FEW035
FM282300 33013KT P6SM FEW035

Example: see airport list